createdAt,value
2018-02-10T00:00:48.645Z,36.63
2018-02-10T00:03:15.695Z,33.77
2018-02-10T00:05:41.947Z,46.87
2018-02-10T00:08:08.936Z,44.00
2018-02-10T00:10:35.216Z,41.77
2018-02-10T00:13:01.496Z,43.70
2018-02-10T00:15:28.496Z,41.60
2018-02-10T00:17:55.010Z,51.90
2018-02-10T00:20:22.079Z,43.50
2018-02-10T00:22:48.376Z,42.77
2018-02-10T00:25:14.676Z,49.70
2018-02-10T00:27:40.928Z,47.87
2018-02-10T00:30:08.096Z,47.53
2018-02-10T00:32:34.349Z,47.03
2018-02-10T00:35:00.621Z,44.43
2018-02-10T00:37:27.627Z,46.07
2018-02-10T00:39:54.160Z,41.27
2018-02-10T00:42:20.411Z,41.80
2018-02-10T00:44:46.639Z,46.07
2018-02-10T00:47:12.893Z,51.13
2018-02-10T00:49:39.139Z,45.07
2018-02-10T00:52:05.394Z,42.63
2018-02-10T00:54:31.923Z,44.60
2018-02-10T00:56:58.196Z,40.63
2018-02-10T00:59:24.460Z,50.63
2018-02-10T01:01:51.496Z,43.33
2018-02-10T01:04:17.740Z,42.23
2018-02-10T01:06:43.974Z,37.60
2018-02-10T01:09:10.257Z,45.17
2018-02-10T01:11:36.508Z,36.53
2018-02-10T01:14:02.807Z,40.10
2018-02-10T01:16:29.358Z,46.30
2018-02-10T01:18:55.628Z,45.60
2018-02-10T01:21:21.899Z,49.30
2018-02-10T01:23:48.500Z,42.37
2018-02-10T01:26:15.488Z,33.63
2018-02-10T01:28:41.748Z,46.60
2018-02-10T01:31:08.028Z,40.77
2018-02-10T01:33:34.312Z,37.27
2018-02-10T01:36:01.392Z,43.70
2018-02-10T01:38:27.644Z,39.70
2018-02-10T01:40:53.910Z,36.23
2018-02-10T01:43:20.160Z,44.33
2018-02-10T01:45:48.431Z,42.43
2018-02-10T01:48:14.757Z,49.70
2018-02-10T01:50:41.024Z,44.57
2018-02-10T01:53:07.279Z,46.87
2018-02-10T01:55:34.259Z,44.20
2018-02-10T01:58:00.507Z,45.07
2018-02-10T02:00:26.792Z,44.03
2018-02-10T02:02:53.035Z,42.80
2018-02-10T02:05:19.267Z,40.40
2018-02-10T02:07:45.864Z,39.77
2018-02-10T02:10:12.908Z,39.37
2018-02-10T02:12:39.968Z,44.63
2018-02-10T02:15:07.318Z,36.33
2018-02-10T02:17:33.592Z,43.17
2018-02-10T02:19:59.856Z,34.20
2018-02-10T02:22:26.402Z,46.20
2018-02-10T02:24:52.643Z,45.87
2018-02-10T02:27:19.427Z,44.07
2018-02-10T02:29:45.944Z,40.63
2018-02-10T02:32:12.191Z,41.50
2018-02-10T02:34:38.536Z,42.87
2018-02-10T02:37:05.772Z,50.90
2018-02-10T02:39:32.032Z,44.27
2018-02-10T02:41:58.268Z,46.73
2018-02-10T02:44:24.864Z,48.83
2018-02-10T02:46:51.844Z,48.63
2018-02-10T02:49:19.000Z,42.73
2018-02-10T02:51:46.361Z,52.67
2018-02-10T02:54:13.351Z,48.43
2018-02-10T02:56:39.589Z,48.80
2018-02-10T02:59:06.226Z,44.63
2018-02-10T03:01:32.493Z,49.67
2018-02-10T03:03:58.747Z,48.50
2018-02-10T03:06:25.430Z,44.47
2018-02-10T03:08:51.687Z,40.13
2018-02-10T03:11:18.673Z,48.00
2018-02-10T03:13:45.285Z,42.50
2018-02-10T03:16:12.259Z,35.47
2018-02-10T03:18:39.244Z,38.83
2018-02-10T03:21:05.503Z,43.83
2018-02-10T03:23:31.813Z,43.43
2018-02-10T03:25:58.059Z,37.67
2018-02-10T03:28:24.807Z,41.60
2018-02-10T03:30:51.062Z,47.70
2018-02-10T03:33:17.325Z,44.97
2018-02-10T03:35:43.867Z,45.03
2018-02-10T03:38:10.848Z,52.10
2018-02-10T03:40:37.101Z,45.17
2018-02-10T03:43:04.128Z,48.77
2018-02-10T03:45:30.370Z,44.37
2018-02-10T03:47:56.611Z,43.00
2018-02-10T03:50:23.131Z,38.47
2018-02-10T03:52:49.411Z,39.73
2018-02-10T03:55:15.676Z,38.23
2018-02-10T04:07:27.291Z,31.20
2018-02-10T04:09:54.265Z,36.50
2018-02-10T04:12:20.916Z,36.00
2018-02-10T04:14:48.238Z,37.47
2018-02-10T04:17:14.488Z,33.60
2018-02-10T04:19:41.492Z,27.77
2018-02-10T04:22:08.030Z,38.80
2018-02-10T04:24:34.257Z,37.33
2018-02-10T04:27:00.500Z,41.17
2018-02-10T04:29:27.045Z,43.80
2018-02-10T04:31:53.316Z,42.90
2018-02-10T04:34:19.584Z,42.77
2018-02-10T04:36:46.132Z,39.90
2018-02-10T04:39:12.373Z,33.93
2018-02-10T04:41:40.148Z,41.30
2018-02-10T04:44:06.433Z,38.57
2018-02-10T04:46:32.696Z,42.37
2018-02-10T04:48:58.947Z,37.57
2018-02-10T04:51:25.551Z,35.87
2018-02-10T04:53:52.556Z,36.67
2018-02-10T04:56:18.820Z,32.63
2018-02-10T04:58:45.398Z,49.57
2018-02-10T05:01:12.387Z,42.87
2018-02-10T05:03:38.644Z,41.57
2018-02-10T05:06:04.936Z,34.93
2018-02-10T05:08:31.958Z,44.57
2018-02-10T05:10:58.200Z,40.83
2018-02-10T05:13:24.445Z,44.70
2018-02-10T05:15:50.740Z,41.63
2018-02-10T05:18:16.987Z,39.03
2018-02-10T05:20:43.758Z,46.50
2018-02-10T05:23:10.005Z,42.13
2018-02-10T05:25:36.240Z,42.07
2018-02-10T05:28:02.504Z,34.87
2018-02-10T05:30:28.736Z,34.87
2018-02-10T05:32:54.988Z,40.03
2018-02-10T05:35:21.260Z,40.67
2018-02-10T05:37:48.291Z,40.10
2018-02-10T05:40:14.530Z,37.43
2018-02-10T05:42:40.796Z,36.93
2018-02-10T05:45:07.784Z,39.97
2018-02-10T05:47:34.044Z,40.47
2018-02-10T05:50:00.593Z,33.57
2018-02-10T05:52:26.847Z,38.83
2018-02-10T05:54:53.118Z,36.70
2018-02-10T05:57:20.001Z,31.20
2018-02-10T05:59:46.236Z,39.40
2018-02-10T06:02:12.498Z,38.00
2018-02-10T06:04:40.172Z,41.67
2018-02-10T06:07:07.376Z,36.40
2018-02-10T06:09:33.716Z,30.00
2018-02-10T06:12:00.371Z,30.47
2018-02-10T06:14:27.474Z,34.17
2018-02-10T06:16:53.894Z,34.50
2018-02-10T06:19:21.354Z,37.17
2018-02-10T06:21:47.689Z,41.03
2018-02-10T06:24:13.944Z,34.57
2018-02-10T06:26:41.223Z,38.37
2018-02-10T06:29:07.483Z,41.43
2018-02-10T06:31:33.778Z,33.97
2018-02-10T06:34:00.049Z,35.47
2018-02-10T06:36:26.310Z,36.53
2018-02-10T06:38:52.554Z,32.57
2018-02-10T06:41:18.839Z,33.37
2018-02-10T06:43:45.093Z,35.07
2018-02-10T06:46:12.103Z,29.83
2018-02-10T06:48:38.357Z,31.90
2018-02-10T06:51:04.640Z,33.93
2018-02-10T06:53:31.765Z,33.70
2018-02-10T06:55:58.344Z,31.97
2018-02-10T06:58:26.592Z,32.57
2018-02-10T07:00:54.369Z,30.73
2018-02-10T07:03:20.771Z,29.53
2018-02-10T07:05:47.020Z,31.57
2018-02-10T07:08:13.264Z,33.77
2018-02-10T07:10:42.985Z,32.93
2018-02-10T07:13:13.333Z,30.67
2018-02-10T07:15:40.970Z,34.73
2018-02-10T07:18:08.228Z,33.10
2018-02-10T07:20:35.813Z,28.90
2018-02-10T07:23:02.124Z,29.23
2018-02-10T07:25:28.406Z,32.63
2018-02-10T07:27:54.708Z,29.00
2018-02-10T07:30:21.956Z,34.53
2018-02-10T07:32:48.220Z,33.83
2018-02-10T07:35:14.479Z,35.53
2018-02-10T07:37:40.748Z,32.93
2018-02-10T07:40:07.012Z,35.70
2018-02-10T07:42:33.269Z,30.67
2018-02-10T07:44:59.528Z,33.40
2018-02-10T07:47:25.796Z,29.77
2018-02-10T07:49:52.073Z,30.60
2018-02-10T07:52:18.316Z,30.70
2018-02-10T07:54:44.865Z,31.93
2018-02-10T07:57:11.135Z,34.97
2018-02-10T07:59:37.414Z,28.57
2018-02-10T08:02:03.693Z,34.83
2018-02-10T08:04:29.995Z,33.57
2018-02-10T08:06:56.248Z,30.30
2018-02-10T08:09:22.509Z,30.57
2018-02-10T08:11:48.740Z,29.97
2018-02-10T08:14:15.029Z,32.23
2018-02-10T08:16:42.281Z,32.17
2018-02-10T08:19:08.566Z,29.47
2018-02-10T08:21:34.828Z,31.13
2018-02-10T08:24:02.200Z,30.33
2018-02-10T08:26:28.485Z,29.37
2018-02-10T08:28:55.467Z,27.70
2018-02-10T08:31:22.747Z,25.57
2018-02-10T08:54:54.112Z,28.03
2018-02-10T10:00:31.847Z,19.93
2018-02-10T10:02:59.829Z,19.53
2018-02-10T10:05:26.092Z,20.50
2018-02-10T10:07:52.372Z,17.87
2018-02-10T10:10:19.366Z,19.13
2018-02-10T10:12:45.623Z,21.40
2018-02-10T10:15:11.915Z,23.43
2018-02-10T10:17:38.185Z,19.40
2018-02-10T10:20:04.500Z,20.63
2018-02-10T10:22:32.464Z,19.70
2018-02-10T10:24:58.732Z,19.17
2018-02-10T10:27:25.049Z,17.47
2018-02-10T10:29:51.367Z,18.30
2018-02-10T10:32:18.433Z,20.37
2018-02-10T10:34:45.629Z,15.80
2018-02-10T10:37:12.322Z,17.43
2018-02-10T11:32:07.564Z,22.70
2018-02-10T11:36:29.055Z,22.83
2018-02-10T11:38:57.227Z,22.90
2018-02-10T12:08:41.300Z,20.37
2018-02-10T12:20:58.999Z,14.03
2018-02-10T12:23:26.930Z,14.07
2018-02-10T12:25:54.865Z,12.03
2018-02-10T12:28:22.974Z,10.33
2018-02-10T12:30:49.999Z,11.10
2018-02-10T12:33:16.330Z,9.90
2018-02-10T12:38:19.520Z,21.10
2018-02-10T12:40:45.757Z,24.97
2018-02-10T12:43:13.711Z,23.60
2018-02-10T12:45:39.961Z,24.77
2018-02-10T12:51:26.060Z,23.33
2018-02-10T12:53:53.992Z,25.77
2018-02-10T12:56:21.982Z,24.37
2018-02-10T13:00:50.214Z,27.43
2018-02-10T13:03:18.198Z,25.37
2018-02-10T13:05:46.154Z,24.07
2018-02-10T13:08:14.131Z,23.03
2018-02-10T13:10:42.071Z,25.07
2018-02-10T13:13:10.028Z,27.57
2018-02-10T13:15:37.517Z,25.40
2018-02-10T13:18:05.459Z,25.47
2018-02-10T13:20:31.722Z,31.47
2018-02-10T13:22:57.976Z,27.67
2018-02-10T13:25:24.225Z,26.20
2018-02-10T13:27:51.605Z,32.03
2018-02-10T13:30:18.585Z,30.07
2018-02-10T13:32:44.861Z,29.57
2018-02-10T13:35:11.857Z,30.03
2018-02-10T13:37:39.128Z,28.73
2018-02-10T13:40:05.362Z,28.13
2018-02-10T13:42:31.593Z,34.77
2018-02-10T13:44:59.544Z,30.03
2018-02-10T13:47:25.928Z,27.83
2018-02-10T13:49:52.163Z,30.03
2018-02-10T13:52:19.173Z,29.33
2018-02-10T13:54:47.142Z,28.00
2018-02-10T13:57:14.249Z,28.10
2018-02-10T13:59:42.218Z,29.23
2018-02-10T14:02:08.453Z,31.50
2018-02-10T14:04:36.395Z,30.20
2018-02-10T14:07:02.653Z,29.07
2018-02-10T14:09:28.903Z,26.07
2018-02-10T14:11:56.907Z,28.70
2018-02-10T14:14:24.875Z,28.00
2018-02-10T14:16:51.143Z,28.80
2018-02-10T14:30:40.258Z,27.90
2018-02-10T14:34:31.206Z,28.27
2018-02-10T14:36:59.223Z,27.93
2018-02-10T14:39:27.310Z,24.23
2018-02-10T14:41:53.589Z,24.10
2018-02-10T14:44:21.583Z,30.53
2018-02-10T14:46:48.721Z,25.33
2018-02-10T14:49:15.059Z,25.03
2018-02-10T14:51:43.898Z,26.37
2018-02-10T14:54:10.148Z,27.97
2018-02-10T14:56:38.099Z,26.07
2018-02-10T14:59:04.619Z,27.17
2018-02-10T15:01:30.873Z,23.97
2018-02-10T15:03:58.823Z,25.27
2018-02-10T15:06:26.798Z,26.00
2018-02-10T15:08:53.073Z,24.07
2018-02-10T15:11:21.059Z,25.30
2018-02-10T15:13:47.485Z,27.70
2018-02-10T15:16:13.759Z,25.70
2018-02-10T15:18:41.704Z,26.70
2018-02-10T15:21:08.269Z,22.40
2018-02-10T15:23:36.232Z,22.07
2018-02-10T15:26:04.209Z,22.00
2018-02-10T15:28:32.203Z,21.83
2018-02-10T15:34:34.079Z,25.43
2018-02-10T15:37:02.199Z,28.13
2018-02-10T15:39:30.179Z,29.20
2018-02-10T15:41:58.298Z,24.10
2018-02-10T15:44:24.715Z,25.37
2018-02-10T15:46:52.716Z,25.47
2018-02-10T15:49:20.670Z,34.07
2018-02-10T15:51:48.609Z,32.77
2018-02-10T15:54:16.670Z,23.93
2018-02-10T15:56:44.639Z,26.80
2018-02-10T15:59:12.584Z,27.20
2018-02-10T16:01:40.689Z,23.70
2018-02-10T16:04:08.915Z,23.73
2018-02-10T16:06:36.863Z,23.57
2018-02-10T16:09:04.945Z,23.70
2018-02-10T16:11:32.961Z,21.73
2018-02-10T16:14:01.065Z,20.10
2018-02-10T16:16:29.035Z,25.37
2018-02-10T16:18:57.043Z,22.30
2018-02-10T16:21:23.321Z,20.20
2018-02-10T16:23:51.263Z,23.80
2018-02-10T16:26:19.257Z,25.00
2018-02-10T16:28:47.235Z,23.63
2018-02-10T16:31:15.327Z,19.07
2018-02-10T16:33:43.320Z,25.23
2018-02-10T16:36:10.119Z,21.67
2018-02-10T16:38:38.099Z,19.10
2018-02-10T16:41:04.685Z,21.93
2018-02-10T16:43:32.649Z,17.70
2018-02-10T16:46:00.619Z,20.13
2018-02-10T16:48:28.781Z,20.73
2018-02-10T16:50:56.905Z,23.13
2018-02-10T16:53:24.649Z,22.07
2018-02-10T16:55:52.627Z,23.10
2018-02-10T16:58:20.631Z,19.20
2018-02-10T17:00:48.577Z,21.30
2018-02-10T17:03:16.671Z,21.63
2018-02-10T17:05:44.779Z,17.40
2018-02-10T17:08:11.031Z,18.93
2018-02-10T17:10:39.123Z,19.97
2018-02-10T17:13:07.099Z,16.47
2018-02-10T17:15:35.039Z,20.10
2018-02-10T17:18:01.295Z,17.77
2018-02-10T17:20:29.293Z,18.83
2018-02-10T17:22:57.374Z,18.10
2018-02-10T17:25:24.687Z,17.90
2018-02-10T17:27:51.493Z,19.33
2018-02-10T17:30:17.759Z,20.83
2018-02-10T17:32:45.745Z,19.07
2018-02-10T17:35:13.835Z,21.20
2018-02-10T17:37:41.829Z,22.30
2018-02-10T17:40:09.829Z,19.17
2018-02-10T17:42:37.891Z,21.57
2018-02-10T17:45:05.911Z,23.70
2018-02-10T17:47:33.523Z,28.47
2018-02-10T17:50:01.622Z,27.30
2018-02-10T17:52:27.900Z,23.87
2018-02-10T17:54:56.121Z,20.00
2018-02-10T17:57:22.378Z,20.63
2018-02-10T17:59:48.674Z,26.27
2018-02-10T18:02:16.635Z,23.50
2018-02-10T18:04:44.583Z,24.87
2018-02-10T18:07:11.752Z,20.77
2018-02-10T18:09:39.732Z,24.63
2018-02-10T18:12:07.863Z,27.17
2018-02-10T18:14:35.829Z,20.27
2018-02-10T18:17:02.262Z,24.70
2018-02-10T18:19:28.532Z,19.27
2018-02-10T18:21:56.480Z,22.40
2018-02-10T18:24:24.716Z,19.77
2018-02-10T18:26:50.972Z,22.70
2018-02-10T18:29:19.079Z,21.83
2018-02-10T18:31:47.692Z,19.70
2018-02-10T18:34:14.695Z,18.70
2018-02-10T18:36:42.764Z,15.07
2018-02-10T18:39:10.741Z,15.20
2018-02-10T18:41:38.679Z,16.43
2018-02-10T18:44:06.698Z,20.40
2018-02-10T18:46:34.980Z,16.43
2018-02-10T18:49:02.284Z,16.80
2018-02-10T18:51:30.370Z,16.67
2018-02-10T18:53:58.364Z,16.03
2018-02-10T18:56:27.005Z,15.20
2018-02-10T18:58:53.272Z,17.10
2018-02-10T19:01:21.270Z,16.63
2018-02-10T19:03:47.524Z,16.50
2018-02-10T19:06:13.766Z,16.10
2018-02-10T19:08:41.833Z,15.70
2018-02-10T19:11:08.829Z,15.43
2018-02-10T19:13:35.256Z,18.47
2018-02-10T19:16:02.282Z,19.40
2018-02-10T19:18:29.635Z,16.93
2018-02-10T19:20:57.844Z,15.63
2018-02-10T19:23:25.832Z,17.03
2018-02-10T19:25:53.787Z,14.70
2018-02-10T19:28:20.071Z,21.43
2018-02-10T19:30:46.335Z,16.77
2018-02-10T19:33:12.584Z,16.77
2018-02-10T19:35:38.811Z,13.33
2018-02-10T19:38:06.784Z,15.20
2018-02-10T19:41:31.068Z,14.73
2018-02-10T19:43:57.327Z,12.10
2018-02-10T19:46:25.056Z,14.30
2018-02-10T19:48:52.994Z,13.47
2018-02-10T19:51:21.138Z,12.27
2018-02-10T19:53:48.140Z,12.97
2018-02-10T19:56:14.510Z,12.70
2018-02-10T19:58:41.912Z,12.80
2018-02-10T20:01:09.863Z,13.30
2018-02-10T20:03:37.873Z,13.50
2018-02-10T20:06:05.839Z,13.40
2018-02-10T20:08:33.036Z,15.87
2018-02-10T20:11:00.102Z,11.93
2018-02-10T20:13:28.215Z,14.90
2018-02-10T20:15:54.455Z,9.93
2018-02-10T20:18:20.924Z,13.90
2018-02-10T20:20:49.027Z,12.57
2018-02-10T20:23:16.975Z,11.50
2018-02-10T20:25:44.708Z,12.17
2018-02-10T20:28:12.683Z,10.87
2018-02-10T20:30:38.936Z,12.97
2018-02-10T20:33:06.895Z,11.27
2018-02-10T20:35:34.867Z,10.37
2018-02-10T20:38:02.820Z,11.50
2018-02-10T20:40:30.953Z,13.63
2018-02-10T20:42:58.931Z,14.80
2018-02-10T20:45:26.895Z,12.33
2018-02-10T20:47:54.883Z,11.80
2018-02-10T20:50:22.859Z,14.00
2018-02-10T20:52:50.901Z,14.50
2018-02-10T20:55:18.959Z,13.03
2018-02-10T20:57:46.959Z,13.03
2018-02-10T21:00:14.912Z,13.20
2018-02-10T21:02:42.863Z,13.37
2018-02-10T21:05:10.863Z,15.53
2018-02-10T21:07:38.949Z,18.97
2018-02-10T21:10:05.982Z,25.47
2018-02-10T21:12:34.235Z,32.50
2018-02-10T21:15:02.377Z,29.17
2018-02-10T21:17:30.347Z,28.73
2018-02-10T21:19:56.980Z,22.63
2018-02-10T21:22:24.977Z,23.57
2018-02-10T21:24:52.923Z,22.50
2018-02-10T21:27:20.880Z,26.23
2018-02-10T21:29:48.823Z,18.73
2018-02-10T21:32:16.781Z,23.97
2018-02-10T21:34:44.740Z,21.83
2018-02-10T21:37:10.975Z,20.63
2018-02-10T21:39:38.926Z,21.43
2018-02-10T21:42:06.899Z,16.20
2018-02-10T21:44:34.931Z,16.20
2018-02-10T21:47:03.062Z,16.83
2018-02-10T21:49:31.303Z,14.83
2018-02-10T21:51:59.267Z,15.53
2018-02-10T21:54:27.219Z,16.23
2018-02-10T21:56:55.315Z,12.77
2018-02-10T21:59:23.342Z,16.13
2018-02-10T22:01:51.299Z,16.07
2018-02-10T22:04:17.687Z,14.63
2018-02-10T22:06:43.972Z,17.20
2018-02-10T22:09:12.015Z,13.63
2018-02-10T22:11:38.273Z,16.27
2018-02-10T22:14:06.215Z,13.10
2018-02-10T22:16:34.159Z,12.50
2018-02-10T22:19:00.749Z,15.90
2018-02-10T22:21:28.811Z,15.90
2018-02-10T22:23:56.792Z,13.67
2018-02-10T22:26:24.804Z,17.43
2018-02-10T22:28:51.241Z,17.33
2018-02-10T22:31:17.534Z,14.27
2018-02-10T22:33:44.710Z,16.67
2018-02-10T22:36:12.659Z,13.17
2018-02-10T22:38:39.088Z,16.03
2018-02-10T22:41:06.348Z,13.60
2018-02-10T22:43:32.624Z,16.00
2018-02-10T22:45:58.888Z,12.97
2018-02-10T22:48:25.897Z,19.23
2018-02-10T22:50:52.155Z,17.73
2018-02-10T22:53:19.529Z,17.60
2018-02-10T22:57:19.596Z,15.43
2018-02-10T22:59:46.005Z,15.10
2018-02-10T23:02:12.271Z,14.57
2018-02-10T23:04:38.649Z,13.43
2018-02-10T23:07:05.004Z,15.17
2018-02-10T23:09:31.457Z,16.23
2018-02-10T23:11:57.982Z,11.63
2018-02-10T23:14:24.357Z,12.03
2018-02-10T23:16:52.335Z,13.10
2018-02-10T23:19:20.295Z,15.13
2018-02-10T23:21:46.528Z,16.30
2018-02-10T23:24:13.513Z,15.17
2018-02-10T23:26:40.109Z,13.50
2018-02-10T23:29:07.459Z,14.47
2018-02-10T23:31:35.479Z,11.90
2018-02-10T23:34:03.447Z,14.40
2018-02-10T23:36:29.829Z,15.53
2018-02-10T23:38:56.807Z,14.10
2018-02-10T23:41:23.264Z,12.80
2018-02-10T23:43:51.374Z,14.43
2018-02-10T23:46:19.103Z,14.83
2018-02-10T23:48:45.789Z,16.30
2018-02-10T23:51:12.778Z,14.67
2018-02-10T23:53:39.112Z,14.03
2018-02-10T23:56:05.636Z,14.90
2018-02-10T23:58:31.994Z,11.60
